createdAt,value
2022-11-02T00:02:40.007Z,6.33
2022-11-02T00:07:43.775Z,7.53
2022-11-02T00:12:48.955Z,7.77
2022-11-02T00:17:57.269Z,6.93
2022-11-02T00:23:03.483Z,7.77
2022-11-02T00:28:09.112Z,7.57
2022-11-02T00:33:12.624Z,6.70
2022-11-02T00:38:16.106Z,7.43
2022-11-02T00:43:20.998Z,6.87
2022-11-02T00:48:24.620Z,6.57
2022-11-02T00:53:28.435Z,6.77
2022-11-02T00:58:33.275Z,6.37
2022-11-02T01:03:36.740Z,6.10
2022-11-02T01:08:40.864Z,6.03
2022-11-02T01:13:46.298Z,6.00
2022-11-02T01:18:53.410Z,5.47
2022-11-02T01:23:57.752Z,5.90
2022-11-02T01:29:02.653Z,5.70
2022-11-02T01:34:06.073Z,5.13
2022-11-02T01:39:09.629Z,5.17
2022-11-02T01:44:32.036Z,5.10
2022-11-02T01:49:39.308Z,4.87
2022-11-02T01:54:45.922Z,4.80
2022-11-02T01:59:56.590Z,5.50
2022-11-02T02:05:04.107Z,4.80
2022-11-02T02:10:09.033Z,6.03
2022-11-02T02:15:14.525Z,5.37
2022-11-02T02:20:29.994Z,5.30
2022-11-02T02:26:11.571Z,5.20
2022-11-02T02:31:20.394Z,6.00
2022-11-02T02:36:29.604Z,4.77
2022-11-02T02:41:40.178Z,4.87
2022-11-02T02:46:49.973Z,5.47
2022-11-02T02:51:58.146Z,4.93
2022-11-02T02:57:07.568Z,5.50
2022-11-02T03:02:18.477Z,5.47
2022-11-02T03:07:29.645Z,5.47
2022-11-02T03:12:52.176Z,5.23
2022-11-02T03:18:04.971Z,4.90
2022-11-02T03:23:17.784Z,4.87
2022-11-02T03:28:34.398Z,5.30
2022-11-02T03:33:46.917Z,4.50
2022-11-02T03:38:54.625Z,5.17
2022-11-02T03:44:05.112Z,4.70
2022-11-02T03:49:13.728Z,4.87
2022-11-02T03:54:23.466Z,4.63
2022-11-02T03:59:26.950Z,5.83
2022-11-02T04:04:31.849Z,6.17
2022-11-02T04:09:35.270Z,5.00
2022-11-02T04:14:41.671Z,5.03
2022-11-02T04:19:49.700Z,4.80
2022-11-02T04:25:11.239Z,5.30
2022-11-02T04:30:15.967Z,4.80
2022-11-02T04:35:20.830Z,4.70
2022-11-02T04:40:24.331Z,4.43
2022-11-02T04:45:27.807Z,5.07
2022-11-02T04:50:33.127Z,4.47
2022-11-02T04:55:36.633Z,5.13
2022-11-02T05:00:40.071Z,5.03
2022-11-02T05:05:44.978Z,5.10
2022-11-02T05:10:48.489Z,4.90
2022-11-02T05:15:51.992Z,5.13
2022-11-02T05:21:00.564Z,4.70
2022-11-02T05:26:05.784Z,4.80
2022-11-02T05:31:09.362Z,4.90
2022-11-02T05:36:14.216Z,5.60
2022-11-02T05:41:17.641Z,4.97
2022-11-02T05:46:21.056Z,5.60
2022-11-02T05:51:25.924Z,5.70
2022-11-02T05:56:29.365Z,5.40
2022-11-02T06:01:32.993Z,5.93
2022-11-02T06:06:38.225Z,6.47
2022-11-02T06:11:41.859Z,5.50
2022-11-02T06:16:45.453Z,5.70
2022-11-02T06:21:50.415Z,6.23
2022-11-02T06:26:53.859Z,6.37
2022-11-02T06:31:57.670Z,6.77
2022-11-02T06:37:02.632Z,6.40
2022-11-02T06:42:06.356Z,6.53
2022-11-02T06:47:10.136Z,11.27
2022-11-02T06:52:15.377Z,12.20
2022-11-02T06:57:18.845Z,9.73
2022-11-02T07:02:22.531Z,7.73
2022-11-02T07:07:27.539Z,9.03
2022-11-02T07:12:32.607Z,7.50
2022-11-02T07:17:36.314Z,8.73
2022-11-02T07:22:41.629Z,7.27
2022-11-02T07:27:45.330Z,7.20
2022-11-02T07:32:48.989Z,6.93
2022-11-02T07:38:02.404Z,6.97
2022-11-02T07:43:06.739Z,6.97
2022-11-02T07:48:10.499Z,7.03
2022-11-02T07:53:15.516Z,7.57
2022-11-02T07:58:19.097Z,7.27
2022-11-02T08:03:22.708Z,6.40
2022-11-02T08:08:27.755Z,6.53
2022-11-02T08:13:32.904Z,7.23
2022-11-02T08:18:36.686Z,7.13
2022-11-02T08:23:41.652Z,6.47
2022-11-02T08:28:45.896Z,7.20
2022-11-02T08:33:49.393Z,7.00
2022-11-02T08:38:54.309Z,7.37
2022-11-02T08:43:59.307Z,7.27
2022-11-02T08:49:03.087Z,6.93
2022-11-02T08:54:08.187Z,6.90
2022-11-02T08:59:11.823Z,6.20
2022-11-02T09:04:15.379Z,6.73
2022-11-02T09:09:20.353Z,6.70
2022-11-02T09:14:23.914Z,6.10
2022-11-02T09:19:27.535Z,6.10
2022-11-02T09:24:32.417Z,5.50
2022-11-02T09:29:35.869Z,5.77
2022-11-02T09:34:40.216Z,5.70
2022-11-02T09:39:45.119Z,5.50
2022-11-02T09:44:55.338Z,4.80
2022-11-02T09:50:02.243Z,4.33
2022-11-02T09:55:14.258Z,5.10
2022-11-02T10:00:19.730Z,4.70
2022-11-02T10:05:33.557Z,4.40
2022-11-02T10:10:40.660Z,5.00
2022-11-02T10:15:49.635Z,4.53
2022-11-02T10:20:55.758Z,4.27
2022-11-02T10:26:02.597Z,4.70
2022-11-02T10:31:16.341Z,4.50
2022-11-02T10:36:42.029Z,4.30
2022-11-02T10:42:12.704Z,4.20
2022-11-02T10:47:19.259Z,4.83
2022-11-02T10:52:22.801Z,7.50
2022-11-02T10:57:29.337Z,6.03
2022-11-02T11:02:33.301Z,4.27
2022-11-02T11:07:36.995Z,4.67
2022-11-02T11:12:45.852Z,3.97
2022-11-02T11:23:22.785Z,3.30
2022-11-02T11:28:30.757Z,3.43
2022-11-02T11:33:42.258Z,3.83
2022-11-02T11:38:50.542Z,3.93
2022-11-02T11:43:56.193Z,3.80
2022-11-02T11:48:59.991Z,3.57
2022-11-02T11:54:27.607Z,3.47
2022-11-02T11:59:52.531Z,3.40
2022-11-02T12:05:13.002Z,3.93
2022-11-02T12:10:21.359Z,3.87
2022-11-02T12:15:43.102Z,3.40
2022-11-02T12:20:57.935Z,3.33
2022-11-02T12:26:16.106Z,3.30
2022-11-02T12:31:32.997Z,3.93
2022-11-02T12:37:18.090Z,3.03
2022-11-02T12:42:24.123Z,3.50
2022-11-02T12:47:41.293Z,3.10
2022-11-02T12:52:54.972Z,3.47
2022-11-02T12:58:03.959Z,3.97
2022-11-02T13:03:17.726Z,3.73
2022-11-02T13:08:24.424Z,3.60
2022-11-02T13:13:34.607Z,4.10
2022-11-02T13:18:45.451Z,3.17
2022-11-02T13:23:51.809Z,3.33
2022-11-02T13:28:59.269Z,3.57
2022-11-02T13:34:08.530Z,3.57
2022-11-02T13:39:30.019Z,3.60
2022-11-02T13:44:58.190Z,3.60
2022-11-02T13:50:05.825Z,3.50
2022-11-02T13:55:18.343Z,3.57
2022-11-02T14:00:39.544Z,3.20
2022-11-02T14:05:49.851Z,3.23
2022-11-02T14:11:24.166Z,3.20
2022-11-02T14:16:59.112Z,3.00
2022-11-02T14:22:14.664Z,2.73
2022-11-02T14:27:32.917Z,2.47
2022-11-02T14:32:50.018Z,2.47
2022-11-02T14:38:11.280Z,2.47
2022-11-02T14:43:47.830Z,2.77
2022-11-02T14:48:53.220Z,2.50
2022-11-02T14:54:01.740Z,2.90
2022-11-02T14:59:05.363Z,2.60
2022-11-02T15:04:09.530Z,2.47
2022-11-02T15:09:15.879Z,2.67
2022-11-02T15:15:00.960Z,2.50
2022-11-02T15:20:27.717Z,2.10
2022-11-02T15:25:37.907Z,2.20
2022-11-02T15:30:46.096Z,2.50
2022-11-02T15:35:52.262Z,2.30
2022-11-02T15:41:06.832Z,2.40
2022-11-02T15:46:22.771Z,2.67
2022-11-02T15:51:35.875Z,2.10
2022-11-02T15:56:55.086Z,2.20
2022-11-02T16:02:14.266Z,2.00
2022-11-02T16:07:19.610Z,2.30
2022-11-02T16:12:38.012Z,1.93
2022-11-02T16:17:53.262Z,2.00
2022-11-02T16:22:59.469Z,1.70
2022-11-02T16:28:15.156Z,1.70
2022-11-02T16:33:18.946Z,2.17
2022-11-02T16:38:23.537Z,2.60
2022-11-02T16:43:29.242Z,2.43
2022-11-02T16:48:34.357Z,1.87
2022-11-02T16:53:39.556Z,2.27
2022-11-02T16:58:49.445Z,2.00
2022-11-02T17:03:52.922Z,1.97
2022-11-02T17:08:57.113Z,2.47
2022-11-02T17:14:01.972Z,2.30
2022-11-02T17:19:05.659Z,2.00
2022-11-02T17:24:33.165Z,1.90
2022-11-02T17:29:41.386Z,1.93
2022-11-02T17:34:51.724Z,2.10
2022-11-02T17:39:57.477Z,1.93
2022-11-02T17:45:25.447Z,1.90
2022-11-02T17:50:31.685Z,2.80
2022-11-02T17:55:37.892Z,4.23
2022-11-02T18:00:43.416Z,3.23
2022-11-02T18:05:55.864Z,2.73
2022-11-02T18:11:04.829Z,4.30
2022-11-02T18:16:10.511Z,2.50
2022-11-02T18:21:17.246Z,2.30
2022-11-02T18:26:21.936Z,2.70
2022-11-02T18:31:27.962Z,2.47
2022-11-02T18:36:32.327Z,2.30
2022-11-02T18:41:37.980Z,3.00
2022-11-02T18:46:44.140Z,2.13
2022-11-02T18:51:48.255Z,2.00
2022-11-02T18:56:53.030Z,2.13
2022-11-02T19:01:59.370Z,2.40
2022-11-02T19:07:20.801Z,2.10
2022-11-02T19:12:27.639Z,2.30
2022-11-02T19:17:35.014Z,2.33
2022-11-02T19:22:41.528Z,2.70
2022-11-02T19:27:45.694Z,2.90
2022-11-02T19:32:52.816Z,2.90
2022-11-02T19:37:59.953Z,2.50
2022-11-02T19:43:04.604Z,3.30
2022-11-02T19:48:11.029Z,2.70
2022-11-02T19:53:15.960Z,2.77
2022-11-02T19:58:21.034Z,2.37
2022-11-02T20:03:27.542Z,2.60
2022-11-02T20:08:31.881Z,2.57
2022-11-02T20:13:38.301Z,3.40
2022-11-02T20:18:46.816Z,5.03
2022-11-02T20:23:52.235Z,3.80
2022-11-02T20:29:01.307Z,3.03
2022-11-02T20:34:09.407Z,3.13
2022-11-02T20:39:13.564Z,4.27
2022-11-02T20:44:21.456Z,5.97
2022-11-02T20:49:49.509Z,9.37
2022-11-02T20:54:53.215Z,7.70
2022-11-02T20:59:57.012Z,6.77
2022-11-02T21:05:05.178Z,4.07
2022-11-02T21:10:10.863Z,3.60
2022-11-02T21:15:14.894Z,3.20
2022-11-02T21:20:33.613Z,3.37
2022-11-02T21:25:38.900Z,4.43
2022-11-02T21:30:42.389Z,4.87
2022-11-02T21:35:49.585Z,3.80
2022-11-02T21:40:53.311Z,3.70
2022-11-02T21:45:58.845Z,3.10
2022-11-02T21:51:06.180Z,2.60
2022-11-02T21:56:11.258Z,5.33
2022-11-02T22:01:34.343Z,4.40
2022-11-02T22:06:39.572Z,6.03
2022-11-02T22:11:44.970Z,7.50
2022-11-02T22:16:48.425Z,6.00
2022-11-02T22:21:53.255Z,5.33
2022-11-02T22:26:56.745Z,4.50
2022-11-02T22:32:00.219Z,4.23
2022-11-02T22:37:18.861Z,4.37
2022-11-02T22:42:22.271Z,5.03
2022-11-02T22:47:25.667Z,4.20
2022-11-02T22:52:30.525Z,4.70
2022-11-02T22:57:34.021Z,4.60
2022-11-02T23:02:37.441Z,4.70
2022-11-02T23:07:42.372Z,4.83
2022-11-02T23:12:45.804Z,4.60
2022-11-02T23:17:50.048Z,4.40
2022-11-02T23:23:12.076Z,4.47
2022-11-02T23:28:32.735Z,4.73
2022-11-02T23:33:57.456Z,5.00
2022-11-02T23:39:30.395Z,4.63
2022-11-02T23:44:33.784Z,4.50
2022-11-02T23:49:37.190Z,4.23
2022-11-02T23:54:59.133Z,3.80
